DDC - Dodge City Rgnl

Pirep is a free, collaborative database of all public and private airports located within the United States. All pilots are welcome to contribute, edit, and improve any airport they have local knowledge about, no registration required.
Are you familiar with this airport? Help out other pilots by adding your local knowledge.
Uploaded photos will be licensed under a CC BY-SA 4.0 license. Please only upload photos you have the rights to use.
Tags
Public
Undocu­mented
METAR / TAF
Edit Tags
Food
Camping
Lodging
Car Rental
Bicycles
Swimming
Golfing
Fishing
Hot Springs
Museum
Flying Clubs
Airpark
Upcoming Events
No upcoming events. Is anything happening here soon?
*
*
*

Where exactly on/near the airport is this event taking place?

Is there a webpage with more information for this event?

Who should be contacted for more information?

What is this event all about?

Repeat every
Description
Transient Parking
Fuel Location
Landing & Tie-down Fees
Crew Car Availability
Flying Clubs
WiFi Access
Airport Statistics
Location: Dodge City, KS
Elevation: 2,595ft
Sectional: Wichita
Activation date: Apr 1940
Fuel: 100LL, A (prices)
Runway 14/32: 6,899ft
Runway 02/20: 4,649ft
Access: Open to the public
Current Weather — VFR
  • Weather data is strictly informational and not for flight planning purposes.
  • METAR
    2024-05-28 16:52:00 CDT
    Ceiling Wind Temperature Dewpoint Weather Visbility
    Sky clear 90° @ 26kt, gusts 38kt 71°F 55°F N/A 7SM
    Raw: KDDC 282152Z AUTO 09026G38KT 7SM CLR 22/13 A3014 RMK AO2 PK WND 10038/2143 WSHFT 2039 SLP186 T02220128
  • TAF
    2024-05-28 16:00:00 CDT – 2024-05-28 22:00:00 CDT
    Ceiling Wind Weather Visbility
    Sky clear 350° @ 21kt, gusts 35kt N/A 6SM
    Clouds: Scattered @ 5,000ft
    Raw: KDDC 282122Z 2821/2918 35021G35KT P6SM SCT050 FM290300 15009KT P6SM VCTS BKN090CB FM291200 16006KT P6SM BKN030 FM291700 15013KT P6SM BKN028
  • TAF
    2024-05-28 22:00:00 CDT – 2024-05-29 07:00:00 CDT
    Ceiling Wind Weather Visbility
    9,000ft 150° @ 9kt Thunderstorm in vicinity 6SM
    Clouds: Broken @ 9,000ft
    Raw: KDDC 282122Z 2821/2918 35021G35KT P6SM SCT050 FM290300 15009KT P6SM VCTS BKN090CB FM291200 16006KT P6SM BKN030 FM291700 15013KT P6SM BKN028
  • TAF
    2024-05-29 07:00:00 CDT – 2024-05-29 12:00:00 CDT
    Ceiling Wind Weather Visbility
    3,000ft 160° @ 6kt N/A 6SM
    Clouds: Broken @ 3,000ft
    Raw: KDDC 282122Z 2821/2918 35021G35KT P6SM SCT050 FM290300 15009KT P6SM VCTS BKN090CB FM291200 16006KT P6SM BKN030 FM291700 15013KT P6SM BKN028
  • TAF
    2024-05-29 12:00:00 CDT – 2024-05-29 13:00:00 CDT
    Ceiling Wind Weather Visbility
    2,800ft 150° @ 13kt N/A 6SM
    Clouds: Broken @ 2,800ft
    Raw: KDDC 282122Z 2821/2918 35021G35KT P6SM SCT050 FM290300 15009KT P6SM VCTS BKN090CB FM291200 16006KT P6SM BKN030 FM291700 15013KT P6SM BKN028
Click/tap to add an annotation marker to the map
Airport Webcams
No webcams added yet.
Direct links to live image URLs will be displayed inline on this page. URLs to separate webpages will be linked to.
URL:
Direct links to live image URLs will be displayed inline on this page. URLs to separate webpages will be linked to.
URL:
Remarks
  • Arff index b equipment is provided. 24 hrs ppr for unsked acr opns with more than 30 passenger seats; call ford county communications at 620-227-4646.
  • Due to ry crowning, apch ends of ry 02 and ry 20 are not visible from the opposite end of the runway.
  • For cd if una to ctc on fss freq, ctc kansas city artcc at 913-254-8508.
  • Dusk-dawn. actvt malsr rwy 14; reil rwy 02/20, rwy 32; papi rwy 02 & 20, vasi rwy 14 & 32; mirl rwy 14/32 & 02/20 - ctaf
Comments
Leave a comment What was your experience like at this airport?